Time;durP1;ratioP1;P1;durP2;ratioP2;P2;SDS_P1;SDS_P2;PMS_P1;PMS_P2;Temp;Humidity;BMP_temperature;BMP_pressure;BME280_temperature;BME280_humidity;BME280_pressure;Samples;Min_cycle;Max_cycle;Signal;HPM_P1;HPM_P2
2022/06/09 00:01:29;;;;;;;35.53;12.65;;;15.40;99.90;;;;;;5073593;28;20051;-56
2022/06/09 00:04:06;;;;;;;34.00;13.75;;;15.30;99.90;;;;;;5073697;28;20043;-56
2022/06/09 00:06:38;;;;;;;38.03;12.70;;;15.30;99.90;;;;;;5059536;28;20478;-56
2022/06/09 00:09:05;;;;;;;38.55;14.05;;;15.30;99.90;;;;;;5073444;28;20052;-56
2022/06/09 00:11:35;;;;;;;46.05;14.57;;;15.30;99.90;;;;;;5073542;28;20116;-56
2022/06/09 00:14:01;;;;;;;40.53;13.65;;;15.20;99.90;;;;;;5073380;28;20051;-56
2022/06/09 00:16:27;;;;;;;35.63;13.98;;;15.40;99.90;;;;;;5073032;28;20056;-57
2022/06/09 00:18:53;;;;;;;33.22;13.52;;;15.30;99.90;;;;;;5073474;28;20131;-56
2022/06/09 00:21:18;;;;;;;34.53;13.80;;;15.30;99.90;;;;;;5054625;28;20048;-57
2022/06/09 00:23:44;;;;;;;37.67;14.70;;;15.20;99.90;;;;;;5073117;28;20052;-56
2022/06/09 00:26:10;;;;;;;31.23;13.25;;;15.30;99.90;;;;;;5055104;28;20098;-55
2022/06/09 00:28:36;;;;;;;38.70;13.40;;;15.20;99.90;;;;;;5072637;28;20079;-55
2022/06/09 00:31:02;;;;;;;37.20;12.93;;;15.40;99.90;;;;;;5072988;28;20128;-56
2022/06/09 00:33:27;;;;;;;28.48;13.60;;;15.30;99.90;;;;;;5072606;28;20548;-56
2022/06/09 00:35:53;;;;;;;37.65;14.75;;;15.30;99.90;;;;;;5054798;28;20053;-56
2022/06/09 00:38:19;;;;;;;34.75;12.95;;;15.20;99.90;;;;;;5072982;28;20123;-56
2022/06/09 00:40:44;;;;;;;32.75;12.70;;;15.30;99.90;;;;;;5073188;28;20040;-56
2022/06/09 00:43:10;;;;;;;36.60;13.55;;;15.30;99.90;;;;;;5072872;28;20044;-56
2022/06/09 00:45:44;;;;;;;38.22;14.52;;;15.20;99.90;;;;;;5072840;28;20053;-55
2022/06/09 00:48:24;;;;;;;34.33;13.80;;;15.20;99.90;;;;;;5072848;28;20159;-56
2022/06/09 00:51:19;;;;;;;39.08;14.15;;;15.20;99.90;;;;;;5072534;28;20118;-57
2022/06/09 00:53:45;;;;;;;44.85;17.10;;;15.30;99.90;;;;;;4991207;28;20050;-55
2022/06/09 00:56:13;;;;;;;42.83;15.63;;;15.20;99.90;;;;;;4990849;28;20386;-54
2022/06/09 00:58:43;;;;;;;37.80;15.35;;;15.20;99.90;;;;;;4991002;28;20535;-54
2022/06/09 01:01:12;;;;;;;40.13;15.05;;;15.10;99.90;;;;;;4990744;28;20251;-55
2022/06/09 01:03:47;;;;;;;30.15;14.65;;;15.10;99.90;;;;;;4990823;28;20061;-55
2022/06/09 01:06:20;;;;;;;27.70;14.30;;;15.20;99.90;;;;;;4990799;28;20050;-56
2022/06/09 01:09:11;;;;;;;29.88;14.80;;;15.20;99.90;;;;;;4990263;28;20426;-55
2022/06/09 01:11:38;;;;;;;33.38;14.20;;;15.10;99.90;;;;;;4932990;29;20055;-55
2022/06/09 01:14:05;;;;;;;25.38;14.55;;;15.20;99.90;;;;;;4933065;29;20486;-55
2022/06/09 01:17:10;;;;;;;40.50;17.13;;;15.10;99.90;;;;;;4932525;29;20052;-55
2022/06/09 01:19:56;;;;;;;55.60;16.75;;;15.00;99.90;;;;;;4895037;29;20056;-55
2022/06/09 01:22:40;;;;;;;31.45;14.30;;;15.00;99.90;;;;;;4895123;29;20063;-56
2022/06/09 01:25:43;;;;;;;38.38;15.85;;;15.00;99.90;;;;;;4894774;29;20049;-56
2022/06/09 01:28:40;;;;;;;44.88;16.40;;;15.00;99.90;;;;;;4894719;29;20100;-56
2022/06/09 01:31:26;;;;;;;31.58;15.32;;;14.90;99.90;;;;;;4922626;29;20087;-57
2022/06/09 01:34:05;;;;;;;33.25;16.50;;;15.00;99.90;;;;;;4910678;29;20052;-56
2022/06/09 01:36:57;;;;;;;40.17;16.60;;;15.00;99.90;;;;;;4916813;29;20160;-56
2022/06/09 01:39:41;;;;;;;38.83;15.98;;;14.90;99.90;;;;;;4932846;29;20051;-56
2022/06/09 01:42:21;;;;;;;36.53;17.42;;;15.10;99.90;;;;;;4932850;29;20058;-56
2022/06/09 01:44:49;;;;;;;45.30;18.63;;;14.90;99.90;;;;;;4932364;29;20187;-56
2022/06/09 01:47:20;;;;;;;39.55;16.42;;;14.90;99.90;;;;;;4932529;29;20062;-56
2022/06/09 01:49:48;;;;;;;41.85;17.95;;;14.90;99.90;;;;;;4989649;28;20046;-56
2022/06/09 01:52:13;;;;;;;43.45;19.33;;;14.90;99.90;;;;;;4973959;28;20125;-56
2022/06/09 01:54:41;;;;;;;39.22;18.25;;;14.80;99.90;;;;;;5009447;28;20172;-56
2022/06/09 01:57:13;;;;;;;37.78;18.15;;;14.80;99.90;;;;;;5059152;28;20048;-55
2022/06/09 01:59:44;;;;;;;40.78;18.23;;;14.80;99.90;;;;;;5071196;28;20114;-56
2022/06/09 02:02:26;;;;;;;50.90;20.13;;;14.80;99.90;;;;;;5071966;28;20056;-56
2022/06/09 02:04:59;;;;;;;36.38;18.42;;;14.80;99.90;;;;;;5072009;28;20045;-56
2022/06/09 02:07:28;;;;;;;46.08;19.20;;;14.90;99.90;;;;;;5072019;28;20061;-55
2022/06/09 02:09:55;;;;;;;43.90;19.05;;;14.80;99.90;;;;;;5071728;28;20037;-54
2022/06/09 02:12:24;;;;;;;38.42;18.98;;;14.70;99.90;;;;;;5071841;28;20128;-55
2022/06/09 02:14:51;;;;;;;;;;;14.80;99.90;;;;;;5072363;28;20052;-55
2022/06/09 02:17:17;;;;;;;42.72;18.05;;;14.90;99.90;;;;;;5071514;28;19931;-55
2022/06/09 02:19:44;;;;;;;37.10;18.02;;;14.80;99.90;;;;;;5054351;28;20128;-55
2022/06/09 02:22:11;;;;;;;40.95;19.25;;;14.90;99.90;;;;;;5075262;28;20044;-56
2022/06/09 02:24:37;;;;;;;36.45;17.52;;;14.90;99.90;;;;;;5075428;28;20568;-57
2022/06/09 02:27:03;;;;;;;36.50;17.92;;;14.70;99.90;;;;;;5075416;28;20055;-55
2022/06/09 02:29:29;;;;;;;34.92;18.67;;;14.80;99.90;;;;;;5075269;28;20052;-56
2022/06/09 02:31:55;;;;;;;50.95;19.20;;;14.90;99.90;;;;;;5075382;28;20051;-55
2022/06/09 02:34:21;;;;;;;43.70;18.15;;;14.70;99.90;;;;;;5074819;28;20483;-55
2022/06/09 02:36:47;;;;;;;32.83;18.95;;;14.80;99.90;;;;;;5075350;28;20119;-56
2022/06/09 02:39:12;;;;;;;39.90;19.05;;;14.80;99.90;;;;;;5075066;28;20053;-56
2022/06/09 02:41:38;;;;;;;41.35;21.02;;;14.70;99.90;;;;;;5075287;28;20088;-56
2022/06/09 02:44:04;;;;;;;41.08;18.48;;;14.70;99.90;;;;;;5074888;28;20048;-56
2022/06/09 02:46:31;;;;;;;42.88;19.15;;;14.70;99.90;;;;;;5075155;28;20045;-56
2022/06/09 02:48:57;;;;;;;43.15;19.45;;;14.70;99.90;;;;;;5074633;28;20048;-56
2022/06/09 02:51:34;;;;;;;51.17;19.60;;;14.60;99.90;;;;;;5073101;28;20049;-56
2022/06/09 02:54:04;;;;;;;35.50;17.88;;;14.60;99.90;;;;;;5073663;28;20387;-56
2022/06/09 02:56:30;;;;;;;46.38;20.70;;;14.60;99.90;;;;;;5075040;28;20045;-55
2022/06/09 02:58:56;;;;;;;47.45;20.27;;;14.50;99.90;;;;;;5074614;28;20055;-55
2022/06/09 03:01:23;;;;;;;44.45;19.63;;;14.60;99.90;;;;;;5075068;28;20075;-54
2022/06/09 03:03:49;;;;;;;39.38;19.30;;;14.70;99.90;;;;;;5074500;28;20121;-55
2022/06/09 03:06:15;;;;;;;39.55;19.75;;;14.60;99.90;;;;;;5075038;28;20124;-55
2022/06/09 03:08:40;;;;;;;45.22;20.65;;;14.60;99.90;;;;;;5074702;28;20498;-55
2022/06/09 03:11:06;;;;;;;37.85;19.33;;;14.80;99.90;;;;;;5074643;28;20052;-55
2022/06/09 03:13:32;;;;;;;36.42;19.38;;;14.60;99.90;;;;;;5056798;28;20036;-55
2022/06/09 03:15:58;;;;;;;43.15;19.67;;;14.60;99.90;;;;;;5056164;28;20080;-55
2022/06/09 03:18:24;;;;;;;40.85;20.75;;;14.50;99.90;;;;;;5074667;28;20087;-55
2022/06/09 03:20:50;;;;;;;47.22;20.88;;;14.60;99.90;;;;;;5072657;28;20479;-55
2022/06/09 03:23:16;;;;;;;41.05;20.27;;;14.60;99.90;;;;;;5074180;28;20119;-55
2022/06/09 03:25:43;;;;;;;38.30;19.95;;;14.80;99.90;;;;;;5074254;28;20075;-56
2022/06/09 03:28:09;;;;;;;42.80;21.45;;;14.60;99.90;;;;;;5074092;28;20522;-56
2022/06/09 03:30:35;;;;;;;46.65;21.65;;;14.60;99.90;;;;;;5074114;28;20399;-55
2022/06/09 03:33:01;;;;;;;47.42;22.00;;;14.60;99.90;;;;;;5073036;28;20052;-56
2022/06/09 03:35:28;;;;;;;45.35;21.85;;;14.70;99.90;;;;;;5073762;28;20052;-56
2022/06/09 03:37:53;;;;;;;40.13;20.92;;;14.70;99.90;;;;;;5074172;28;20052;-56
2022/06/09 03:40:21;;;;;;;42.42;20.73;;;14.60;99.90;;;;;;5073943;28;20115;-56
2022/06/09 03:42:47;;;;;;;44.88;22.27;;;14.50;99.90;;;;;;5074116;28;20102;-56
2022/06/09 03:45:13;;;;;;;50.85;22.95;;;14.60;99.90;;;;;;5073942;28;20486;-56
2022/06/09 03:47:39;;;;;;;48.72;22.10;;;14.70;99.90;;;;;;5055762;28;20132;-55
2022/06/09 03:50:07;;;;;;;43.30;23.52;;;14.60;99.90;;;;;;5073807;28;20502;-55
2022/06/09 03:52:32;;;;;;;52.10;24.05;;;14.60;99.90;;;;;;5073504;28;20047;-56
2022/06/09 03:54:58;;;;;;;47.97;23.52;;;14.60;99.90;;;;;;5074042;28;20290;-55
2022/06/09 03:57:24;;;;;;;42.92;22.27;;;14.70;99.90;;;;;;5073810;28;20040;-56
2022/06/09 03:59:50;;;;;;;37.10;22.17;;;14.50;99.90;;;;;;5055421;28;20134;-56
2022/06/09 04:02:16;;;;;;;44.75;21.95;;;14.60;99.90;;;;;;5073575;28;20442;-56
2022/06/09 04:04:41;;;;;;;47.33;22.98;;;14.70;99.90;;;;;;5073273;28;20045;-56
2022/06/09 04:07:08;;;;;;;42.30;22.73;;;14.70;99.90;;;;;;5073658;28;20056;-56
2022/06/09 04:09:33;;;;;;;41.63;22.13;;;14.70;99.90;;;;;;5054581;28;20523;-56
2022/06/09 04:11:59;;;;;;;35.67;21.48;;;14.70;99.90;;;;;;5073274;28;20128;-56
2022/06/09 04:14:24;;;;;;;47.25;22.63;;;14.60;99.90;;;;;;5073401;28;20453;-56
2022/06/09 04:16:55;;;;;;;44.25;21.23;;;14.70;99.90;;;;;;5054870;28;20402;-56
2022/06/09 04:19:22;;;;;;;42.00;21.77;;;14.70;99.90;;;;;;5073040;28;20517;-55
2022/06/09 04:21:48;;;;;;;38.47;21.27;;;14.70;99.90;;;;;;5055478;28;20075;-55
2022/06/09 04:24:14;;;;;;;34.55;20.92;;;14.70;99.90;;;;;;5073062;28;20076;-55
2022/06/09 04:26:41;;;;;;;38.95;21.02;;;14.60;99.90;;;;;;5073306;28;20094;-55
2022/06/09 04:29:07;;;;;;;40.42;22.13;;;14.80;99.90;;;;;;5073358;28;20135;-56
2022/06/09 04:31:34;;;;;;;36.45;21.33;;;14.80;99.90;;;;;;5073244;28;20048;-55
2022/06/09 04:33:59;;;;;;;35.03;20.15;;;14.70;99.90;;;;;;5072460;28;20490;-55
2022/06/09 04:36:25;;;;;;;36.70;23.30;;;14.80;99.90;;;;;;5073005;28;20079;-57
2022/06/09 04:38:51;;;;;;;41.53;21.27;;;14.70;99.90;;;;;;5072911;28;20449;-55
2022/06/09 04:41:17;;;;;;;43.17;22.73;;;14.80;99.90;;;;;;5072328;28;20047;-55
2022/06/09 04:43:45;;;;;;;30.95;21.13;;;14.70;99.90;;;;;;5072460;28;20438;-55
2022/06/09 04:46:17;;;;;;;42.90;23.73;;;14.90;99.90;;;;;;5072953;28;20379;-54
2022/06/09 04:48:42;;;;;;;34.05;22.25;;;14.80;99.90;;;;;;5072596;28;20271;-56
2022/06/09 04:51:09;;;;;;;36.35;22.55;;;14.80;99.90;;;;;;5072337;28;20059;-55
2022/06/09 04:53:36;;;;;;;35.30;23.55;;;14.80;99.90;;;;;;5072381;28;20049;-56
2022/06/09 04:56:02;;;;;;;40.35;23.85;;;14.70;99.90;;;;;;5072431;28;20052;-56
2022/06/09 04:58:28;;;;;;;33.40;25.30;;;14.70;99.90;;;;;;5072216;28;20475;-56
2022/06/09 05:00:53;;;;;;;36.95;24.20;;;14.70;99.90;;;;;;5072286;28;20052;-57
2022/06/09 05:03:20;;;;;;;34.30;24.73;;;14.70;99.90;;;;;;5072270;28;20131;-56
2022/06/09 05:05:48;;;;;;;40.28;24.05;;;14.60;99.90;;;;;;5072332;28;20051;-55
2022/06/09 05:08:14;;;;;;;41.80;26.05;;;14.60;99.90;;;;;;5072225;28;20371;-56
2022/06/09 05:10:42;;;;;;;45.75;28.02;;;14.70;99.90;;;;;;5072554;28;20135;-55
2022/06/09 05:13:08;;;;;;;45.92;28.80;;;14.70;99.90;;;;;;5072065;28;20123;-55
2022/06/09 05:15:43;;;;;;;47.50;29.67;;;14.60;99.90;;;;;;5072509;28;20048;-56
2022/06/09 05:18:11;;;;;;;45.67;30.00;;;14.70;99.90;;;;;;5071945;28;20076;-55
2022/06/09 05:20:36;;;;;;;46.35;30.83;;;14.70;99.90;;;;;;5072463;28;20052;-56
2022/06/09 05:23:02;;;;;;;50.60;30.88;;;14.80;99.90;;;;;;5072102;28;20055;-56
2022/06/09 05:25:28;;;;;;;57.15;31.77;;;14.80;99.90;;;;;;5071905;28;20043;-54
2022/06/09 05:27:54;;;;;;;51.22;30.73;;;14.80;99.90;;;;;;5072269;28;20044;-56
2022/06/09 05:30:23;;;;;;;51.03;31.20;;;14.80;99.90;;;;;;5071942;28;20051;-56
2022/06/09 05:32:49;;;;;;;54.47;31.65;;;14.90;99.90;;;;;;5072384;28;20446;-55
2022/06/09 05:35:15;;;;;;;48.15;29.38;;;15.00;99.90;;;;;;5071987;28;20051;-56
2022/06/09 05:45:57;;;;;;;36.80;25.15;;;15.00;99.90;;;;;;5071393;28;20498;-55
2022/06/09 05:48:22;;;;;;;39.47;26.25;;;15.10;99.90;;;;;;5072154;28;20048;-55
2022/06/09 05:50:49;;;;;;;38.08;26.58;;;15.10;99.90;;;;;;5071681;28;20060;-55
2022/06/09 05:53:15;;;;;;;39.92;25.35;;;15.10;99.90;;;;;;5072124;28;20044;-56
2022/06/09 05:55:41;;;;;;;30.33;24.10;;;15.20;99.90;;;;;;5076599;28;20044;-56
2022/06/09 05:58:07;;;;;;;36.28;24.70;;;15.10;99.90;;;;;;5078801;28;20036;-55
2022/06/09 06:00:33;;;;;;;34.17;23.92;;;14.90;99.90;;;;;;5078368;28;20051;-55
2022/06/09 06:02:58;;;;;;;32.28;23.95;;;15.10;99.90;;;;;;5078429;28;20482;-56
2022/06/09 06:08:08;;;;;;;30.08;22.77;;;15.10;99.90;;;;;;5078084;28;20491;-56
2022/06/09 06:10:34;;;;;;;28.50;22.63;;;15.20;99.90;;;;;;5078036;28;20049;-55
2022/06/09 06:13:00;;;;;;;29.60;24.27;;;15.20;99.90;;;;;;5078276;28;20139;-55
2022/06/09 06:15:26;;;;;;;25.98;22.52;;;15.20;99.90;;;;;;5078058;28;20111;-55
2022/06/09 06:17:56;;;;;;;26.55;22.52;;;15.20;99.90;;;;;;5078017;28;20445;-56
2022/06/09 06:20:22;;;;;;;26.25;22.00;;;15.20;99.90;;;;;;5078279;28;20094;-56
2022/06/09 06:22:48;;;;;;;26.50;23.60;;;15.20;99.90;;;;;;5078018;28;20499;-54
2022/06/09 06:25:14;;;;;;;28.48;21.98;;;15.20;99.90;;;;;;5077885;28;20046;-55
2022/06/09 06:27:41;;;;;;;27.95;21.88;;;15.20;99.90;;;;;;5078026;28;20083;-55
2022/06/09 06:30:07;;;;;;;26.58;22.33;;;15.20;99.90;;;;;;5077897;28;20055;-55
2022/06/09 06:32:33;;;;;;;28.98;21.23;;;15.30;99.90;;;;;;5077881;28;20503;-55
2022/06/09 06:34:59;;;;;;;24.50;19.65;;;15.50;99.90;;;;;;5078266;28;20087;-56
2022/06/09 06:37:25;;;;;;;27.02;20.90;;;15.50;99.90;;;;;;5078152;28;20359;-55
2022/06/09 06:39:50;;;;;;;24.67;19.80;;;15.60;99.90;;;;;;5078155;28;20062;-55
2022/06/09 06:42:16;;;;;;;28.02;20.33;;;15.70;99.90;;;;;;5077929;28;20048;-55
2022/06/09 06:44:42;;;;;;;21.73;19.38;;;15.90;99.90;;;;;;5078260;28;20055;-56
2022/06/09 06:47:07;;;;;;;21.42;18.45;;;15.70;99.90;;;;;;5078273;28;20045;-56
2022/06/09 06:49:33;;;;;;;20.65;18.50;;;15.80;99.90;;;;;;5077957;28;20479;-56
2022/06/09 06:51:59;;;;;;;21.95;19.65;;;16.00;99.90;;;;;;5078141;28;20045;-55
2022/06/09 06:54:24;;;;;;;20.92;18.73;;;16.10;99.90;;;;;;5077849;28;20040;-56
2022/06/09 06:56:50;;;;;;;22.58;18.20;;;16.00;99.90;;;;;;5076063;28;20055;-56
2022/06/09 06:59:15;;;;;;;21.85;19.30;;;16.20;99.90;;;;;;5077948;28;20040;-56
2022/06/09 07:01:41;;;;;;;21.90;16.02;;;16.20;99.90;;;;;;5077810;28;20118;-56
2022/06/09 07:04:07;;;;;;;18.63;16.65;;;16.10;99.90;;;;;;5078150;28;20095;-56
2022/06/09 07:06:33;;;;;;;18.17;15.85;;;16.20;99.90;;;;;;5075270;28;20430;-55
2022/06/09 07:08:58;;;;;;;17.13;14.80;;;16.30;99.90;;;;;;5074710;28;20052;-56
2022/06/09 07:11:24;;;;;;;18.63;14.13;;;16.40;99.90;;;;;;5074452;28;20059;-55
2022/06/09 07:13:50;;;;;;;17.20;15.43;;;16.50;99.90;;;;;;5074855;28;20367;-56
2022/06/09 07:16:16;;;;;;;16.95;14.35;;;16.40;99.90;;;;;;5074131;28;20137;-56
2022/06/09 07:18:42;;;;;;;17.42;13.60;;;16.50;99.90;;;;;;5056018;28;20048;-56
2022/06/09 07:21:08;;;;;;;16.48;13.13;;;16.80;99.90;;;;;;5074480;28;20044;-56
2022/06/09 07:23:34;;;;;;;14.70;12.68;;;16.90;99.90;;;;;;5056396;28;20179;-56
2022/06/09 07:26:01;;;;;;;13.65;11.52;;;16.90;99.90;;;;;;5074544;28;20082;-55
2022/06/09 07:28:27;;;;;;;11.30;10.13;;;17.10;99.90;;;;;;5074725;28;20048;-54
2022/06/09 07:30:56;;;;;;;13.65;9.65;;;17.40;99.90;;;;;;5074549;28;20057;-55
2022/06/09 07:33:23;;;;;;;;;;;17.60;99.90;;;;;;5074732;28;20178;-53
2022/06/09 07:35:51;;;;;;;11.90;8.25;;;17.70;99.90;;;;;;5074233;28;19920;-55
2022/06/09 07:38:18;;;;;;;9.60;8.70;;;17.90;99.90;;;;;;5074232;28;20423;-56
2022/06/09 07:40:44;;;;;;;13.43;8.23;;;17.90;99.90;;;;;;5056215;28;20119;-55
2022/06/09 07:43:11;;;;;;;14.38;9.02;;;18.20;99.90;;;;;;5074388;28;20049;-55
2022/06/09 07:45:37;;;;;;;12.05;7.75;;;18.20;99.90;;;;;;5056014;28;20055;-55
2022/06/09 07:48:04;;;;;;;10.57;6.40;;;18.10;99.90;;;;;;5074418;28;20083;-55
2022/06/09 07:50:31;;;;;;;6.70;4.22;;;18.30;99.90;;;;;;5073947;28;20127;-53
2022/06/09 07:52:57;;;;;;;4.82;3.92;;;18.60;99.90;;;;;;5074236;28;20132;-55
2022/06/09 07:55:24;;;;;;;9.10;3.42;;;18.70;99.90;;;;;;5056233;28;20048;-55
2022/06/09 07:57:51;;;;;;;5.57;3.88;;;19.00;99.90;;;;;;5073953;28;20056;-55
2022/06/09 08:00:18;;;;;;;5.47;2.90;;;19.20;99.90;;;;;;5074189;28;20084;-56
2022/06/09 08:02:44;;;;;;;4.68;2.83;;;19.40;99.90;;;;;;5055981;28;20592;-55
2022/06/09 08:05:10;;;;;;;6.45;3.22;;;19.30;99.90;;;;;;5073666;28;20119;-56
2022/06/09 08:07:36;;;;;;;4.20;2.03;;;19.20;99.90;;;;;;5073873;28;20051;-58
2022/06/09 08:10:05;;;;;;;10.20;2.55;;;19.20;99.90;;;;;;5073214;28;20047;-56
2022/06/09 08:12:31;;;;;;;6.30;2.83;;;19.40;99.90;;;;;;5074051;28;20091;-55
2022/06/09 08:14:56;;;;;;;5.03;2.75;;;19.70;99.90;;;;;;5073003;28;20048;-56
2022/06/09 08:17:22;;;;;;;3.08;2.10;;;19.50;99.90;;;;;;5072763;28;20063;-54
2022/06/09 08:19:48;;;;;;;5.72;2.42;;;19.50;99.90;;;;;;5055866;28;20052;-53
2022/06/09 08:22:15;;;;;;;7.80;2.60;;;19.60;99.90;;;;;;5073280;28;20479;-55
2022/06/09 08:24:41;;;;;;;5.00;2.60;;;19.80;99.90;;;;;;5072886;28;20040;-55
2022/06/09 08:27:07;;;;;;;6.68;2.60;;;20.00;99.90;;;;;;5072794;28;20094;-55
2022/06/09 08:29:32;;;;;;;5.15;2.08;;;20.10;99.90;;;;;;5073440;28;20053;-55
2022/06/09 08:31:59;;;;;;;7.10;1.92;;;20.20;99.90;;;;;;5054743;28;20052;-55
2022/06/09 08:34:25;;;;;;;6.55;1.58;;;20.00;99.90;;;;;;5073492;28;20044;-54
2022/06/09 08:36:51;;;;;;;5.88;1.83;;;20.30;99.90;;;;;;5072989;28;20044;-54
2022/06/09 08:39:17;;;;;;;4.43;1.42;;;20.20;99.90;;;;;;5072696;28;20051;-54
2022/06/09 08:42:13;;;;;;;3.08;1.50;;;20.00;99.90;;;;;;5073297;28;20041;-55
2022/06/09 08:44:52;;;;;;;3.72;1.30;;;20.00;99.90;;;;;;5072198;28;20423;-55
2022/06/09 08:47:38;;;;;;;3.87;1.33;;;19.90;99.90;;;;;;5073200;28;20084;-55
2022/06/09 08:50:06;;;;;;;4.18;1.80;;;20.10;99.90;;;;;;5072892;28;20094;-53
2022/06/09 08:52:45;;;;;;;5.63;1.35;;;20.20;99.90;;;;;;5073141;28;20109;-54
2022/06/09 08:55:40;;;;;;;5.38;1.30;;;20.40;99.90;;;;;;5072962;28;20036;-55
2022/06/09 08:58:27;;;;;;;4.47;1.20;;;20.30;99.90;;;;;;5072927;28;20102;-54
2022/06/09 09:01:19;;;;;;;5.45;1.20;;;20.40;99.90;;;;;;5072745;28;20130;-55
2022/06/09 09:03:50;;;;;;;14.20;1.52;;;20.50;99.90;;;;;;5069739;28;20123;-55
2022/06/09 09:06:30;;;;;;;6.47;1.00;;;20.60;99.90;;;;;;5073085;28;20483;-56
2022/06/09 09:09:11;;;;;;;4.18;1.10;;;20.70;99.90;;;;;;5072872;28;20052;-54
2022/06/09 09:11:48;;;;;;;6.97;1.20;;;20.50;99.90;;;;;;5072393;28;20512;-55
2022/06/09 09:14:20;;;;;;;2.50;1.00;;;20.80;99.90;;;;;;5072703;28;20051;-54
2022/06/09 09:16:57;;;;;;;6.53;2.05;;;21.00;99.90;;;;;;5072339;28;20160;-55
2022/06/09 09:19:35;;;;;;;3.80;1.27;;;21.00;99.90;;;;;;5073144;28;20052;-55
2022/06/09 09:22:33;;;;;;;6.38;1.40;;;20.70;99.90;;;;;;5072593;28;20036;-55
2022/06/09 09:25:15;;;;;;;6.03;1.67;;;20.50;99.90;;;;;;5072428;28;20045;-55
2022/06/09 09:27:51;;;;;;;11.80;1.98;;;20.40;99.90;;;;;;5054413;28;20052;-55
2022/06/09 09:30:22;;;;;;;4.95;1.42;;;20.80;99.90;;;;;;5071758;28;20052;-55
2022/06/09 09:32:51;;;;;;;5.38;1.63;;;20.90;99.90;;;;;;5072551;28;20044;-54
2022/06/09 09:35:33;;;;;;;5.65;1.23;;;20.70;99.90;;;;;;5072220;28;20431;-55
2022/06/09 09:38:00;;;;;;;5.93;1.20;;;20.40;99.90;;;;;;5072085;28;20119;-55
2022/06/09 09:40:44;;;;;;;7.47;1.60;;;20.70;99.90;;;;;;5054318;28;20060;-55
2022/06/09 09:43:13;;;;;;;6.97;1.25;;;21.10;99.90;;;;;;5072282;28;20052;-55
2022/06/09 09:45:42;;;;;;;5.40;1.10;;;21.30;99.90;;;;;;5072550;28;20052;-55
2022/06/09 09:48:17;;;;;;;6.28;1.42;;;21.50;99.90;;;;;;5072535;28;20056;-54
2022/06/09 09:51:05;;;;;;;9.30;1.52;;;21.50;99.90;;;;;;5072142;28;20437;-55
2022/06/09 09:53:35;;;;;;;10.20;1.70;;;21.50;99.90;;;;;;5072364;28;20040;-54
2022/06/09 09:56:16;;;;;;;5.78;1.10;;;21.30;99.90;;;;;;5071704;28;20060;-55
2022/06/09 09:58:48;;;;;;;3.95;1.10;;;21.50;99.90;;;;;;5071858;28;20048;-55
2022/06/09 10:01:17;;;;;;;4.18;1.30;;;21.40;99.90;;;;;;5071522;28;20051;-55
2022/06/09 10:09:46;;;;;;;4.60;1.17;;;21.10;99.90;;;;;;5071669;28;20490;-55
2022/06/09 10:12:30;;;;;;;7.80;1.35;;;21.40;99.90;;;;;;5072011;28;20555;-55
2022/06/09 10:15:03;;;;;;;3.63;1.00;;;21.50;99.90;;;;;;5071650;28;20368;-55
2022/06/09 10:18:02;;;;;;;4.38;1.42;;;21.80;99.90;;;;;;5071927;28;20069;-55
2022/06/09 10:20:37;;;;;;;8.18;1.30;;;21.90;99.90;;;;;;5071976;28;20045;-54
2022/06/09 10:23:37;;;;;;;3.97;1.30;;;22.00;99.90;;;;;;5072162;28;20045;-55
2022/06/09 10:26:24;;;;;;;2.70;0.90;;;22.20;99.90;;;;;;5061105;28;20041;-56
2022/06/09 10:29:02;;;;;;;7.97;1.20;;;22.20;99.90;;;;;;5071624;28;20047;-56
2022/06/09 10:31:43;;;;;;;6.63;1.10;;;22.20;99.90;;;;;;5071033;28;20040;-56
2022/06/09 10:34:16;;;;;;;4.38;1.10;;;22.60;99.90;;;;;;5071861;28;20040;-54
2022/06/09 10:37:00;;;;;;;5.22;1.23;;;22.80;99.90;;;;;;5071954;28;20091;-54
2022/06/09 10:39:54;;;;;;;5.82;1.08;;;23.00;99.90;;;;;;5071805;28;20495;-55
2022/06/09 10:42:31;;;;;;;7.28;1.98;;;23.10;99.90;;;;;;5075010;28;20048;-55
2022/06/09 10:45:13;;;;;;;7.57;1.48;;;23.20;99.90;;;;;;5075795;28;20040;-55
2022/06/09 10:57:01;;;;;;;3.17;0.95;;;23.00;99.90;;;;;;5013013;28;20038;-56
2022/06/09 10:59:51;;;;;;;4.07;1.27;;;23.10;99.90;;;;;;5013462;28;20129;-56
2022/06/09 11:02:21;;;;;;;6.40;1.67;;;23.00;99.90;;;;;;5013378;28;20151;-55
2022/06/09 11:04:49;;;;;;;6.38;1.25;;;22.80;99.90;;;;;;5013058;28;20061;-56
2022/06/09 11:07:21;;;;;;;5.28;1.20;;;22.80;99.90;;;;;;5013250;28;20527;-56
2022/06/09 11:10:14;;;;;;;6.15;1.30;;;23.00;99.90;;;;;;5012874;28;20081;-56
2022/06/09 11:12:48;;;;;;;7.07;1.40;;;23.20;99.90;;;;;;5013040;28;20062;-56
2022/06/09 11:15:46;;;;;;;4.00;0.90;;;22.90;99.90;;;;;;5013039;28;20041;-54
2022/06/09 11:18:49;;;;;;;7.25;1.35;;;22.60;99.90;;;;;;5012778;28;20058;-55
2022/06/09 11:21:48;;;;;;;11.35;1.25;;;22.70;99.90;;;;;;5012856;28;20527;-55
2022/06/09 11:24:27;;;;;;;5.65;1.10;;;22.90;99.90;;;;;;5013092;28;20045;-55
2022/06/09 11:27:01;;;;;;;;;;;23.00;99.90;;;;;;5012359;28;20089;-56
2022/06/09 11:29:53;;;;;;;5.78;1.17;;;23.30;99.90;;;;;;5012007;28;20371;-56
2022/06/09 11:32:53;;;;;;;3.67;1.00;;;23.50;99.90;;;;;;5011441;28;20636;-56
2022/06/09 11:35:55;;;;;;;4.22;1.05;;;24.10;99.90;;;;;;5073898;28;20052;-56
2022/06/09 11:38:20;;;;;;;6.93;1.63;;;24.20;99.90;;;;;;5073944;28;20443;-56
2022/06/09 11:41:05;;;;;;;7.45;1.80;;;24.70;99.90;;;;;;5073737;28;20235;-56
2022/06/09 11:43:46;;;;;;;4.78;1.20;;;24.60;99.90;;;;;;5073346;28;20057;-56
2022/06/09 11:46:20;;;;;;;4.65;1.05;;;24.10;99.90;;;;;;5073642;28;20123;-56
2022/06/09 11:48:53;;;;;;;8.88;1.80;;;24.00;99.90;;;;;;5055366;28;20052;-56
2022/06/09 11:51:22;;;;;;;4.22;1.38;;;23.30;99.90;;;;;;5073378;28;20040;-56
2022/06/09 11:53:49;;;;;;;;;;;23.30;99.90;;;;;;5073330;28;20044;-56
2022/06/09 11:56:33;;;;;;;6.72;1.45;;;23.90;99.90;;;;;;5073316;28;19970;-56
2022/06/09 11:59:22;;;;;;;11.70;1.20;;;23.70;99.90;;;;;;5073486;28;20718;-56
2022/06/09 12:01:50;;;;;;;8.93;1.23;;;24.10;99.90;;;;;;5073141;28;20052;-56
2022/06/09 12:04:50;;;;;;;2.13;0.70;;;24.10;99.90;;;;;;5073264;28;20044;-56
2022/06/09 12:07:41;;;;;;;5.07;1.17;;;24.00;99.90;;;;;;5073133;28;20040;-57
2022/06/09 12:10:22;;;;;;;5.22;1.05;;;23.80;99.90;;;;;;5072826;28;20045;-56
2022/06/09 12:13:18;;;;;;;3.35;0.90;;;24.00;99.90;;;;;;5073207;28;20471;-54
2022/06/09 12:16:20;;;;;;;4.38;1.52;;;24.00;99.90;;;;;;5073288;28;20466;-56
2022/06/09 12:18:57;;;;;;;5.65;1.30;;;24.30;99.90;;;;;;5072720;28;20160;-55
2022/06/09 12:21:31;;;;;;;4.88;1.15;;;24.50;99.90;;;;;;5055242;28;20409;-55
2022/06/09 12:24:01;;;;;;;4.30;1.23;;;24.50;99.90;;;;;;5072509;28;20036;-56
2022/06/09 12:26:44;;;;;;;5.70;1.60;;;24.40;99.90;;;;;;5072677;28;20048;-57
2022/06/09 12:29:37;;;;;;;4.30;1.48;;;24.70;99.90;;;;;;5059657;28;20052;-55
2022/06/09 12:32:08;;;;;;;4.63;1.10;;;25.00;99.90;;;;;;5072526;28;20045;-55
2022/06/09 12:34:40;;;;;;;4.57;1.13;;;24.70;99.90;;;;;;5072543;28;20494;-56
2022/06/09 12:37:22;;;;;;;6.57;1.50;;;24.70;99.90;;;;;;5072264;28;20048;-55
2022/06/09 12:39:52;;;;;;;4.95;1.38;;;24.50;99.90;;;;;;5072686;28;20063;-55
2022/06/09 12:42:31;;;;;;;5.80;1.52;;;24.30;99.90;;;;;;5072312;28;20063;-55
2022/06/09 12:45:06;;;;;;;7.45;1.23;;;24.40;99.90;;;;;;5072124;28;20135;-55
2022/06/09 12:47:33;;;;;;;6.00;1.30;;;24.30;99.90;;;;;;5072118;28;20132;-55
2022/06/09 12:50:00;;;;;;;10.02;1.27;;;24.40;99.90;;;;;;5072228;28;20044;-55
2022/06/09 12:52:45;;;;;;;4.78;1.00;;;24.60;99.90;;;;;;5072155;28;20548;-57
2022/06/09 12:55:24;;;;;;;10.45;1.92;;;24.70;99.90;;;;;;5072209;28;20406;-55
2022/06/09 12:57:57;;;;;;;3.95;1.38;;;24.70;99.90;;;;;;5072050;28;20068;-55
2022/06/09 13:00:29;;;;;;;3.83;0.90;;;24.70;99.90;;;;;;5071866;28;20045;-56
2022/06/09 13:02:54;;;;;;;4.15;1.15;;;24.20;99.90;;;;;;5072101;28;20094;-56
2022/06/09 13:05:33;;;;;;;6.70;1.70;;;23.80;99.90;;;;;;5053155;28;20052;-57
2022/06/09 13:08:16;;;;;;;4.25;1.25;;;23.80;99.90;;;;;;5071778;28;20044;-55
2022/06/09 13:10:46;;;;;;;7.32;1.63;;;24.50;99.90;;;;;;5054031;28;20048;-56
2022/06/09 13:13:20;;;;;;;8.40;1.45;;;24.70;99.90;;;;;;5072002;28;20433;-56
2022/06/09 13:15:54;;;;;;;4.93;1.48;;;24.70;99.90;;;;;;5071950;28;20091;-56
2022/06/09 13:18:27;;;;;;;6.38;2.22;;;24.00;99.90;;;;;;5071530;28;20067;-56
2022/06/09 13:21:07;;;;;;;4.47;1.83;;;23.80;99.90;;;;;;5071905;28;20372;-56
2022/06/09 13:23:34;;;;;;;4.70;1.10;;;23.70;99.90;;;;;;5071755;28;20044;-57
2022/06/09 13:26:00;;;;;;;5.55;1.70;;;23.70;99.90;;;;;;5071640;28;20043;-55